Time;durP1;ratioP1;P1;durP2;ratioP2;P2;SDS_P1;SDS_P2;PMS_P1;PMS_P2;Temp;Humidity;BMP_temperature;BMP_pressure;BME280_temperature;BME280_humidity;BME280_pressure;Samples;Min_cycle;Max_cycle;Signal;HPM_P1;HPM_P2
2023/06/05 00:00:57;;;;;;;1.63;0.70;;;15.60;75.30;;;;;;5075045;28;20452;-85
2023/06/05 00:03:26;;;;;;;0.80;0.63;;;15.50;75.30;;;;;;5075724;28;20477;-85
2023/06/05 00:05:53;;;;;;;1.37;1.17;;;15.50;77.00;;;;;;5076446;28;20968;-85
2023/06/05 00:08:20;;;;;;;1.47;0.90;;;15.50;76.90;;;;;;5074908;28;20447;-85
2023/06/05 00:10:47;;;;;;;2.30;0.70;;;15.40;76.90;;;;;;5075216;28;20444;-85
2023/06/05 00:13:13;;;;;;;1.47;1.00;;;15.40;77.40;;;;;;5073953;28;20937;-85
2023/06/05 00:15:40;;;;;;;3.27;1.03;;;15.40;77.10;;;;;;5074978;28;20465;-85
2023/06/05 00:18:09;;;;;;;1.83;0.90;;;15.40;77.50;;;;;;5075027;28;20456;-85
2023/06/05 00:20:36;;;;;;;0.90;0.80;;;15.30;77.20;;;;;;5074566;28;20532;-85
2023/06/05 00:23:02;;;;;;;1.40;0.90;;;15.30;77.30;;;;;;5074816;28;20491;-85
2023/06/05 00:25:29;;;;;;;1.93;0.80;;;15.30;78.20;;;;;;5074780;28;20468;-85
2023/06/05 00:27:56;;;;;;;2.30;0.60;;;15.20;78.20;;;;;;5074838;28;20481;-85
2023/06/05 00:30:23;;;;;;;1.53;0.70;;;15.20;77.80;;;;;;5074437;28;20955;-85
2023/06/05 00:32:49;;;;;;;0.80;0.80;;;15.10;78.40;;;;;;5074681;28;20443;-85
2023/06/05 00:35:18;;;;;;;1.40;0.67;;;15.10;78.80;;;;;;5074626;28;20476;-85
2023/06/05 00:37:46;;;;;;;1.53;0.80;;;15.00;79.00;;;;;;5074593;28;20452;-85
2023/06/05 00:40:14;;;;;;;0.80;0.70;;;15.00;78.70;;;;;;5074527;28;20480;-85
2023/06/05 00:42:40;;;;;;;1.03;0.90;;;14.90;78.90;;;;;;5074413;28;20480;-85
2023/06/05 00:45:08;;;;;;;0.77;0.60;;;14.90;79.20;;;;;;5074116;28;20461;-85
2023/06/05 00:47:35;;;;;;;3.33;0.80;;;14.80;79.50;;;;;;5074376;28;20445;-85
2023/06/05 00:50:03;;;;;;;1.87;0.77;;;14.80;78.90;;;;;;5074333;28;20477;-85
2023/06/05 00:52:34;;;;;;;1.23;0.90;;;14.90;79.40;;;;;;5074042;28;20448;-85
2023/06/05 00:55:02;;;;;;;1.23;0.93;;;14.70;79.40;;;;;;5074484;28;20510;-85
2023/06/05 00:57:29;;;;;;;1.47;0.80;;;14.70;79.50;;;;;;5073924;28;20959;-85
2023/06/05 00:59:56;;;;;;;1.20;0.77;;;14.70;79.80;;;;;;5074214;28;20527;-85
2023/06/05 01:02:22;;;;;;;1.77;0.70;;;14.70;79.10;;;;;;5073833;28;21011;-85
2023/06/05 01:04:50;;;;;;;1.80;0.70;;;14.60;79.30;;;;;;5074172;28;20467;-85
2023/06/05 01:07:18;;;;;;;4.33;0.60;;;14.60;79.60;;;;;;5073706;28;20453;-85
2023/06/05 01:09:46;;;;;;;1.27;0.60;;;14.60;79.80;;;;;;5074122;28;20448;-86
2023/06/05 01:12:21;;;;;;;0.83;0.60;;;14.50;80.50;;;;;;5074005;28;20468;-85
2023/06/05 01:14:50;;;;;;;1.70;0.93;;;14.50;80.80;;;;;;5073871;28;20468;-85
2023/06/05 01:17:18;;;;;;;0.70;0.67;;;14.50;81.50;;;;;;5073873;28;20449;-85
2023/06/05 01:19:46;;;;;;;0.70;0.70;;;14.50;81.50;;;;;;5073858;28;20449;-85
2023/06/05 01:22:13;;;;;;;1.03;0.80;;;14.40;81.50;;;;;;5073266;28;20542;-85
2023/06/05 01:24:41;;;;;;;1.33;0.77;;;14.30;81.30;;;;;;5073519;28;20457;-85
2023/06/05 01:27:15;;;;;;;0.70;0.60;;;14.30;81.70;;;;;;5073772;28;20448;-85
2023/06/05 01:29:53;;;;;;;3.80;1.20;;;14.30;81.50;;;;;;5073684;28;20441;-85
2023/06/05 01:32:36;;;;;;;1.40;0.70;;;14.20;82.00;;;;;;5073739;28;20425;-85
2023/06/05 01:35:07;;;;;;;1.40;0.70;;;14.20;81.40;;;;;;5073611;28;20538;-85
2023/06/05 01:37:40;;;;;;;0.70;0.70;;;14.20;82.10;;;;;;5073580;28;20433;-85
2023/06/05 01:40:11;;;;;;;0.90;0.70;;;14.10;82.70;;;;;;5073591;28;20490;-85
2023/06/05 01:42:39;;;;;;;1.40;0.80;;;14.10;82.90;;;;;;5073462;28;20465;-85
2023/06/05 01:45:08;;;;;;;6.60;0.97;;;14.10;83.60;;;;;;5073120;28;21011;-85
2023/06/05 01:47:36;;;;;;;1.50;0.80;;;14.00;83.60;;;;;;5073447;28;20452;-85
2023/06/05 01:50:03;;;;;;;1.20;1.10;;;14.00;83.90;;;;;;5073433;28;20448;-85
2023/06/05 01:52:29;;;;;;;0.70;0.70;;;14.00;84.00;;;;;;5073399;28;20445;-84
2023/06/05 01:54:59;;;;;;;0.60;0.50;;;14.00;83.80;;;;;;5073090;28;20453;-85
2023/06/05 01:57:28;;;;;;;0.93;0.50;;;13.90;84.00;;;;;;5073406;28;20559;-85
2023/06/05 01:59:55;;;;;;;1.13;0.97;;;13.90;83.40;;;;;;5073358;28;20498;-85
2023/06/05 02:02:23;;;;;;;0.80;0.73;;;13.90;84.00;;;;;;5073221;28;20854;-85
2023/06/05 02:04:50;;;;;;;0.90;0.60;;;13.90;84.10;;;;;;5072916;28;21059;-85
2023/06/05 02:07:17;;;;;;;0.90;0.87;;;13.90;84.20;;;;;;5073195;28;20476;-85
2023/06/05 02:09:43;;;;;;;1.10;0.67;;;13.90;84.30;;;;;;5073250;28;20445;-85
2023/06/05 02:12:14;;;;;;;0.70;0.60;;;13.90;84.60;;;;;;5073948;28;20778;-85
2023/06/05 02:14:44;;;;;;;1.03;0.83;;;13.80;85.20;;;;;;5072811;28;20909;-85
2023/06/05 02:17:13;;;;;;;1.70;1.10;;;13.80;85.10;;;;;;5073286;28;20520;-85
2023/06/05 02:19:40;;;;;;;1.17;0.80;;;13.80;85.30;;;;;;5072840;28;20441;-85
2023/06/05 02:22:07;;;;;;;1.90;0.80;;;13.80;85.30;;;;;;5072628;28;20481;-85
2023/06/05 02:24:35;;;;;;;1.43;0.90;;;13.70;86.00;;;;;;5072980;28;20495;-85
2023/06/05 02:27:02;;;;;;;2.00;0.80;;;13.70;86.20;;;;;;5073037;28;20486;-85
2023/06/05 02:29:28;;;;;;;1.43;0.70;;;13.70;86.30;;;;;;5073084;28;20547;-85
2023/06/05 02:31:56;;;;;;;0.60;0.60;;;13.70;86.30;;;;;;5073051;28;20449;-86
2023/06/05 02:34:24;;;;;;;1.80;1.10;;;13.70;85.80;;;;;;5072670;28;20937;-84
2023/06/05 02:36:51;;;;;;;2.70;0.70;;;13.60;86.10;;;;;;5075078;28;20819;-85
2023/06/05 02:39:18;;;;;;;1.33;0.80;;;13.60;86.30;;;;;;5076956;28;20432;-85
2023/06/05 02:41:45;;;;;;;0.60;0.60;;;13.60;87.20;;;;;;5076533;28;20519;-85
2023/06/05 02:44:12;;;;;;;1.13;0.90;;;13.50;86.70;;;;;;5076443;28;20476;-85
2023/06/05 02:46:38;;;;;;;0.80;0.80;;;13.50;86.20;;;;;;5076646;28;20471;-85
2023/06/05 02:49:06;;;;;;;2.67;1.30;;;13.50;87.20;;;;;;5076720;28;20445;-85
2023/06/05 02:51:33;;;;;;;1.53;0.80;;;13.50;87.80;;;;;;5076622;28;20455;-85
2023/06/05 02:54:00;;;;;;;0.93;0.60;;;13.40;87.90;;;;;;5076367;28;20444;-85
2023/06/05 02:56:27;;;;;;;1.30;0.80;;;13.40;87.70;;;;;;5076529;28;20475;-85
2023/06/05 02:58:56;;;;;;;0.80;0.70;;;13.30;87.50;;;;;;5076508;28;20449;-85
2023/06/05 03:01:25;;;;;;;2.10;0.93;;;13.30;87.80;;;;;;5076488;28;20453;-85
2023/06/05 03:03:53;;;;;;;1.47;1.10;;;13.30;88.20;;;;;;5076044;28;21197;-85
2023/06/05 03:06:27;;;;;;;0.80;0.80;;;13.30;88.10;;;;;;5076281;28;20463;-85
2023/06/05 03:08:55;;;;;;;0.73;0.73;;;13.20;87.90;;;;;;5076377;28;20432;-85
2023/06/05 03:11:24;;;;;;;1.13;1.00;;;13.20;88.30;;;;;;5075949;28;20923;-85
2023/06/05 03:13:51;;;;;;;0.90;0.70;;;13.20;88.20;;;;;;5075934;28;20445;-85
2023/06/05 03:16:18;;;;;;;1.53;0.90;;;13.10;88.40;;;;;;5076095;28;20473;-85
2023/06/05 03:18:45;;;;;;;0.50;0.50;;;13.10;89.30;;;;;;5075905;28;21011;-85
2023/06/05 03:21:12;;;;;;;1.07;0.90;;;13.00;89.90;;;;;;5075719;28;20506;-85
2023/06/05 03:23:40;;;;;;;0.80;0.70;;;13.00;89.60;;;;;;5075994;28;20480;-85
2023/06/05 03:26:07;;;;;;;1.53;0.60;;;13.00;90.00;;;;;;5075972;28;20471;-85
2023/06/05 03:28:34;;;;;;;1.47;1.00;;;12.90;90.00;;;;;;5076025;28;20456;-85
2023/06/05 03:31:01;;;;;;;2.83;0.90;;;12.90;90.00;;;;;;5076510;28;20449;-85
2023/06/05 03:33:27;;;;;;;1.10;0.77;;;12.90;89.50;;;;;;5075575;28;20975;-85
2023/06/05 03:35:55;;;;;;;1.77;0.80;;;12.90;90.20;;;;;;5075737;28;20469;-85
2023/06/05 03:38:22;;;;;;;2.23;0.80;;;12.90;90.30;;;;;;5075828;28;20856;-85
2023/06/05 03:40:50;;;;;;;2.40;0.60;;;12.90;90.30;;;;;;5075717;28;20452;-85
2023/06/05 03:43:17;;;;;;;2.30;1.10;;;12.90;90.60;;;;;;5075626;28;20983;-85
2023/06/05 03:45:43;;;;;;;8.53;0.90;;;12.90;90.90;;;;;;5075588;28;20464;-85
2023/06/05 03:48:10;;;;;;;0.67;0.50;;;12.90;91.10;;;;;;5073993;28;20445;-85
2023/06/05 03:50:38;;;;;;;0.73;0.70;;;13.00;91.20;;;;;;5075342;28;20431;-85
2023/06/05 03:53:05;;;;;;;0.90;0.80;;;13.00;91.20;;;;;;5075462;28;20532;-85
2023/06/05 03:55:40;;;;;;;0.63;0.63;;;13.00;91.30;;;;;;5075403;28;20465;-85
2023/06/05 03:58:09;;;;;;;1.77;0.60;;;13.00;91.40;;;;;;5075407;28;20523;-85
2023/06/05 04:00:36;;;;;;;2.20;0.90;;;13.00;91.50;;;;;;5075162;28;20452;-85
2023/06/05 04:03:03;;;;;;;1.53;0.67;;;13.10;91.80;;;;;;5074900;28;20883;-85
2023/06/05 04:05:29;;;;;;;15.10;1.37;;;13.10;91.40;;;;;;5075312;28;20487;-85
2023/06/05 04:07:56;;;;;;;0.70;0.60;;;13.10;91.40;;;;;;5076156;28;20448;-85
2023/06/05 04:10:23;;;;;;;0.60;0.53;;;13.20;91.40;;;;;;5075216;28;20444;-85
2023/06/05 04:12:50;;;;;;;0.70;0.70;;;13.20;91.90;;;;;;5075137;28;20453;-85
2023/06/05 04:15:18;;;;;;;1.93;0.60;;;13.20;91.80;;;;;;5074972;28;20472;-85
2023/06/05 04:17:45;;;;;;;0.80;0.80;;;13.20;92.20;;;;;;5075062;28;20452;-85
2023/06/05 04:20:14;;;;;;;0.97;0.90;;;13.30;92.40;;;;;;5074512;28;20945;-85
2023/06/05 04:22:41;;;;;;;0.70;0.70;;;13.30;92.50;;;;;;5074948;28;20435;-85
2023/06/05 04:25:10;;;;;;;0.93;0.83;;;13.30;93.00;;;;;;5074510;28;20487;-85
2023/06/05 04:27:37;;;;;;;0.83;0.83;;;13.40;93.10;;;;;;5074869;28;20537;-85
2023/06/05 04:30:05;;;;;;;0.80;0.80;;;13.40;93.50;;;;;;5074489;28;20979;-85
2023/06/05 04:32:34;;;;;;;2.33;0.97;;;13.50;93.60;;;;;;5075586;28;20834;-85
2023/06/05 04:35:01;;;;;;;1.47;0.83;;;13.50;93.50;;;;;;5074579;28;20469;-85
2023/06/05 04:37:27;;;;;;;0.70;0.70;;;13.50;93.20;;;;;;5074677;28;20494;-85
2023/06/05 04:39:54;;;;;;;1.53;0.97;;;13.60;93.30;;;;;;5074579;28;20429;-85
2023/06/05 04:42:21;;;;;;;2.50;0.73;;;13.60;93.80;;;;;;5074552;28;20813;-85
2023/06/05 04:44:56;;;;;;;0.73;0.73;;;13.70;93.70;;;;;;5074053;28;20477;-85
2023/06/05 04:47:23;;;;;;;0.83;0.80;;;13.80;93.30;;;;;;5074490;28;20441;-85
2023/06/05 04:49:52;;;;;;;0.87;0.87;;;13.80;93.20;;;;;;5074366;28;20453;-84
2023/06/05 04:52:20;;;;;;;1.60;1.13;;;13.80;93.10;;;;;;5074008;28;21020;-84
2023/06/05 04:54:47;;;;;;;1.00;0.90;;;13.90;93.20;;;;;;5073904;28;20452;-85
2023/06/05 04:57:16;;;;;;;1.87;0.90;;;13.90;93.10;;;;;;5074368;28;20429;-84
2023/06/05 04:59:42;;;;;;;1.50;0.70;;;13.90;93.90;;;;;;5073884;28;20470;-85
2023/06/05 05:02:09;;;;;;;1.07;1.00;;;14.00;93.80;;;;;;5074132;28;20453;-85
2023/06/05 05:04:36;;;;;;;2.93;1.30;;;14.10;93.60;;;;;;5073995;28;20529;-85
2023/06/05 05:07:05;;;;;;;0.70;0.63;;;14.10;94.10;;;;;;5074076;28;20460;-85
2023/06/05 05:09:32;;;;;;;1.20;0.77;;;14.20;94.50;;;;;;5074052;28;20445;-85
2023/06/05 05:11:59;;;;;;;1.10;0.90;;;14.30;94.40;;;;;;5073974;28;20460;-85
2023/06/05 05:14:26;;;;;;;2.17;0.70;;;14.30;93.80;;;;;;5073798;28;20452;-85
2023/06/05 05:16:55;;;;;;;1.23;0.73;;;14.30;93.80;;;;;;5073518;28;20468;-84
2023/06/05 05:19:21;;;;;;;1.67;1.47;;;14.40;94.10;;;;;;5073835;28;20456;-84
2023/06/05 05:21:48;;;;;;;1.90;1.70;;;14.40;93.70;;;;;;5073389;28;20542;-85
2023/06/05 05:24:16;;;;;;;2.23;1.30;;;14.50;94.50;;;;;;5073663;28;20488;-84
2023/06/05 05:26:43;;;;;;;1.10;0.80;;;14.60;94.30;;;;;;5073752;28;20471;-85
2023/06/05 05:29:10;;;;;;;13.33;1.10;;;14.60;94.50;;;;;;5073744;28;20444;-85
2023/06/05 05:31:37;;;;;;;0.83;0.80;;;14.70;94.80;;;;;;5073719;28;20453;-84
2023/06/05 05:34:03;;;;;;;3.37;1.37;;;14.80;94.60;;;;;;5073700;28;20448;-84
2023/06/05 05:36:32;;;;;;;1.00;0.93;;;14.90;94.60;;;;;;5073622;28;20471;-85
2023/06/05 05:38:59;;;;;;;1.87;1.20;;;15.00;94.00;;;;;;5073565;28;20502;-85
2023/06/05 05:41:27;;;;;;;1.47;1.37;;;15.10;94.40;;;;;;5073599;28;20433;-85
2023/06/05 05:43:54;;;;;;;1.43;1.10;;;15.20;93.90;;;;;;5073129;28;20483;-85
2023/06/05 05:46:20;;;;;;;2.80;1.30;;;15.30;93.50;;;;;;5074272;28;20469;-84
2023/06/05 05:48:47;;;;;;;1.23;0.80;;;15.50;93.70;;;;;;5073539;28;20440;-84
2023/06/05 05:51:14;;;;;;;1.50;1.20;;;15.60;92.90;;;;;;5073429;28;20449;-85
2023/06/05 05:53:41;;;;;;;1.10;1.00;;;15.70;92.40;;;;;;5073410;28;20524;-85
2023/06/05 05:56:08;;;;;;;2.70;1.57;;;15.80;92.80;;;;;;5073296;28;20496;-84
2023/06/05 05:58:36;;;;;;;1.20;0.90;;;15.90;92.40;;;;;;5073429;28;20819;-84
2023/06/05 06:01:02;;;;;;;1.17;1.07;;;16.00;91.60;;;;;;5073340;28;20444;-85
2023/06/05 06:03:29;;;;;;;2.10;1.00;;;16.20;91.10;;;;;;5073526;28;20468;-84
2023/06/05 06:05:57;;;;;;;1.87;1.67;;;16.30;90.60;;;;;;5072963;28;21019;-85
2023/06/05 06:08:24;;;;;;;1.20;1.07;;;16.50;90.50;;;;;;5072980;28;20937;-84
2023/06/05 06:10:51;;;;;;;1.80;1.33;;;16.70;90.20;;;;;;5074188;28;20436;-85
2023/06/05 06:13:18;;;;;;;4.47;1.00;;;16.80;90.20;;;;;;5077361;28;20482;-84
2023/06/05 06:15:46;;;;;;;1.37;1.00;;;17.00;90.60;;;;;;5077293;28;20472;-85
2023/06/05 06:18:13;;;;;;;1.37;1.03;;;17.20;90.80;;;;;;5077104;28;20936;-85
2023/06/05 06:20:40;;;;;;;1.90;1.13;;;17.50;90.80;;;;;;5076890;28;20488;-85
2023/06/05 06:23:07;;;;;;;1.63;1.43;;;17.70;90.20;;;;;;5077296;28;20510;-85
2023/06/05 06:25:33;;;;;;;2.20;1.33;;;18.00;89.10;;;;;;5077089;28;20895;-85
2023/06/05 06:28:00;;;;;;;4.03;1.53;;;18.30;87.20;;;;;;5077010;28;20461;-85
2023/06/05 06:30:28;;;;;;;0.90;0.87;;;18.60;85.50;;;;;;5077147;28;20459;-85
2023/06/05 06:32:58;;;;;;;3.53;1.30;;;19.00;83.90;;;;;;5077160;28;20456;-85
2023/06/05 06:35:25;;;;;;;3.80;1.53;;;19.30;83.70;;;;;;5077167;28;20513;-86
2023/06/05 06:37:54;;;;;;;2.97;1.30;;;19.60;81.80;;;;;;5077052;28;20501;-85
2023/06/05 06:40:21;;;;;;;4.07;1.60;;;20.00;81.50;;;;;;5077001;28;20449;-85
2023/06/05 06:42:48;;;;;;;1.23;1.00;;;20.30;80.60;;;;;;5077534;28;20447;-86
2023/06/05 06:45:15;;;;;;;1.33;1.23;;;20.50;80.60;;;;;;5076404;28;21019;-85
2023/06/05 06:47:42;;;;;;;1.40;1.30;;;20.80;79.20;;;;;;5076535;28;20886;-85
2023/06/05 06:50:11;;;;;;;1.47;1.37;;;20.90;78.30;;;;;;5076723;28;20494;-85
2023/06/05 06:52:37;;;;;;;1.23;1.10;;;21.00;78.00;;;;;;5076691;28;20448;-85
2023/06/05 06:55:05;;;;;;;2.20;1.53;;;21.20;77.10;;;;;;5076682;28;20815;-85
2023/06/05 06:57:32;;;;;;;1.30;1.20;;;21.20;75.80;;;;;;5077153;28;20452;-85
2023/06/05 06:59:59;;;;;;;3.07;1.60;;;21.30;76.30;;;;;;5076326;28;20958;-85
2023/06/05 07:02:26;;;;;;;1.60;1.17;;;21.30;76.50;;;;;;5076654;28;20444;-86
2023/06/05 07:04:54;;;;;;;1.63;1.10;;;21.40;77.70;;;;;;5076468;28;20488;-85
2023/06/05 07:07:22;;;;;;;2.07;1.33;;;21.50;76.50;;;;;;5076616;28;20490;-87
2023/06/05 07:09:51;;;;;;;1.33;1.20;;;21.60;76.80;;;;;;5076705;28;20431;-87
2023/06/05 07:12:19;;;;;;;1.03;1.00;;;21.80;75.90;;;;;;5077080;28;20444;-87
2023/06/05 07:14:46;;;;;;;5.00;1.50;;;21.90;75.80;;;;;;5082443;28;20440;-87
2023/06/05 07:17:13;;;;;;;1.20;1.10;;;22.00;76.20;;;;;;5081558;28;20439;-87
2023/06/05 07:19:40;;;;;;;1.37;1.17;;;22.10;76.00;;;;;;5077161;28;20190;-87
2023/06/05 07:22:07;;;;;;;0.93;0.83;;;22.20;75.50;;;;;;5076550;28;20697;-87
2023/06/05 07:24:38;;;;;;;3.00;1.07;;;22.30;74.70;;;;;;5076556;28;20296;-88
2023/06/05 07:27:06;;;;;;;2.93;1.53;;;22.50;73.40;;;;;;5077020;28;20198;-87
2023/06/05 07:29:32;;;;;;;1.40;1.30;;;22.80;74.80;;;;;;5076369;28;20685;-88
2023/06/05 07:32:00;;;;;;;3.20;1.20;;;23.00;74.20;;;;;;5076224;28;20213;-87
2023/06/05 07:34:27;;;;;;;0.90;0.90;;;23.30;73.10;;;;;;5076521;28;20194;-88
2023/06/05 07:36:55;;;;;;;1.55;1.45;;;23.60;72.80;;;;;;5076360;28;20225;-88
2023/06/05 07:39:22;;;;;;;1.73;1.63;;;24.10;71.80;;;;;;5076273;28;20202;-88
2023/06/05 07:41:51;;;;;;;5.22;1.35;;;24.60;70.80;;;;;;5075835;28;20224;-88
2023/06/05 07:44:19;;;;;;;1.33;1.30;;;25.10;69.70;;;;;;5076365;28;20233;-88
2023/06/05 07:46:47;;;;;;;2.17;1.80;;;25.70;69.00;;;;;;5076183;28;20233;-90
2023/06/05 07:49:15;;;;;;;2.72;1.60;;;26.30;66.60;;;;;;5076359;28;20229;-90
2023/06/05 07:51:43;;;;;;;1.58;1.48;;;26.90;65.80;;;;;;5076444;28;20611;-90
2023/06/05 07:54:11;;;;;;;1.33;1.23;;;27.70;64.80;;;;;;5076349;28;20255;-89
2023/06/05 07:56:39;;;;;;;1.00;0.90;;;28.40;62.90;;;;;;5076277;28;20229;-89
2023/06/05 07:59:08;;;;;;;1.45;1.00;;;28.90;61.20;;;;;;5076292;28;20214;-89
2023/06/05 08:01:37;;;;;;;1.88;1.25;;;29.50;61.50;;;;;;5075851;28;20211;-90
2023/06/05 08:04:04;;;;;;;1.40;1.30;;;29.90;58.10;;;;;;5076169;28;20202;-90
2023/06/05 08:06:31;;;;;;;1.25;1.00;;;30.30;57.40;;;;;;5075917;28;20255;-90
2023/06/05 08:08:58;;;;;;;1.10;1.10;;;31.10;57.60;;;;;;5075923;28;20214;-90
2023/06/05 08:11:26;;;;;;;1.30;1.20;;;31.90;55.30;;;;;;5075825;28;20192;-88
2023/06/05 08:13:53;;;;;;;1.63;1.20;;;32.60;53.10;;;;;;5075649;28;20621;-90
2023/06/05 08:16:21;;;;;;;1.20;1.20;;;32.70;53.50;;;;;;5075835;28;20231;-90
2023/06/05 08:18:48;;;;;;;2.17;1.65;;;32.70;54.10;;;;;;5075630;28;20211;-89
2023/06/05 08:21:15;;;;;;;1.15;1.15;;;32.80;53.20;;;;;;5075347;28;20249;-90
2023/06/05 08:23:42;;;;;;;2.08;1.73;;;32.80;53.70;;;;;;5075631;28;20203;-90
2023/06/05 08:26:11;;;;;;;1.50;1.40;;;33.00;52.80;;;;;;5075659;28;20229;-90
2023/06/05 08:28:39;;;;;;;1.58;1.48;;;33.30;51.40;;;;;;5075962;28;20206;-90
2023/06/05 08:31:06;;;;;;;2.63;1.95;;;33.20;51.20;;;;;;5075592;28;20202;-90
2023/06/05 08:33:34;;;;;;;1.52;1.42;;;33.10;51.60;;;;;;5076140;28;20611;-90
2023/06/05 08:36:02;;;;;;;1.90;1.70;;;32.80;51.80;;;;;;5075936;28;20220;-90
2023/06/05 08:38:29;;;;;;;2.13;2.03;;;32.30;52.70;;;;;;5075946;28;20549;-90
2023/06/05 08:41:01;;;;;;;1.95;1.85;;;31.40;53.40;;;;;;5075752;28;20195;-90
2023/06/05 08:43:29;;;;;;;1.65;1.55;;;30.50;56.00;;;;;;5076208;28;20210;-90
2023/06/05 08:45:56;;;;;;;1.90;1.80;;;29.80;58.40;;;;;;5075760;28;20234;-90
2023/06/05 08:48:25;;;;;;;2.00;1.80;;;29.20;58.60;;;;;;5076315;28;20220;-90
2023/06/05 08:50:54;;;;;;;2.08;1.98;;;28.80;60.30;;;;;;5076242;28;20252;-89
2023/06/05 08:53:23;;;;;;;3.90;2.38;;;28.50;60.90;;;;;;5076863;28;20209;-89
2023/06/05 08:55:55;;;;;;;2.05;1.95;;;28.30;61.10;;;;;;5076075;28;20232;-90
2023/06/05 08:58:22;;;;;;;3.50;3.15;;;28.30;62.90;;;;;;5075779;28;20650;-90
2023/06/05 09:00:50;;;;;;;2.13;2.03;;;28.60;61.20;;;;;;5076057;28;20204;-89
2023/06/05 09:03:19;;;;;;;2.50;2.22;;;28.90;61.00;;;;;;5074802;28;20209;-83
2023/06/05 09:05:46;;;;;;;2.05;1.95;;;29.20;60.60;;;;;;5078218;28;20708;-89
2023/06/05 09:08:15;;;;;;;1.80;1.65;;;29.30;60.50;;;;;;5076266;28;20202;-87
2023/06/05 09:10:42;;;;;;;2.50;2.28;;;28.80;60.40;;;;;;5076946;28;20217;-87
2023/06/05 09:13:09;;;;;;;2.83;2.42;;;28.00;62.20;;;;;;5076339;28;20188;-86
2023/06/05 09:15:36;;;;;;;3.33;3.13;;;27.40;64.40;;;;;;5076462;28;20283;-87
2023/06/05 09:18:08;;;;;;;2.70;2.50;;;27.00;65.80;;;;;;5077735;28;20202;-87
2023/06/05 09:20:37;;;;;;;3.28;2.35;;;26.70;67.10;;;;;;5076323;28;20720;-86
2023/06/05 09:23:06;;;;;;;2.70;2.50;;;26.40;67.90;;;;;;5075841;28;20205;-87
2023/06/05 09:25:52;;;;;;;2.13;2.03;;;25.90;68.30;;;;;;5075084;28;20256;-86
2023/06/05 09:28:19;;;;;;;2.65;2.45;;;25.80;69.60;;;;;;5075110;28;20240;-86
2023/06/05 09:30:57;;;;;;;3.30;3.00;;;25.80;69.90;;;;;;5075005;28;20190;-86
2023/06/05 09:33:24;;;;;;;2.78;2.00;;;25.60;69.50;;;;;;5074691;28;20196;-87
2023/06/05 09:36:03;;;;;;;2.95;2.40;;;25.60;71.00;;;;;;5074719;28;20221;-86
2023/06/05 09:38:30;;;;;;;3.85;3.05;;;25.70;69.60;;;;;;5074957;28;20236;-88
2023/06/05 09:41:04;;;;;;;3.25;2.20;;;25.60;70.30;;;;;;5074999;28;20198;-86
2023/06/05 09:43:31;;;;;;;2.65;2.45;;;25.60;70.50;;;;;;5074788;28;20568;-85
2023/06/05 09:45:58;;;;;;;2.67;2.15;;;25.70;71.10;;;;;;5074387;28;20228;-87
2023/06/05 09:48:26;;;;;;;3.13;2.17;;;25.90;70.30;;;;;;5074821;28;20323;-87
2023/06/05 09:50:54;;;;;;;3.63;2.65;;;26.10;69.50;;;;;;5075381;28;20263;-88
2023/06/05 09:53:21;;;;;;;2.45;2.30;;;26.10;68.30;;;;;;5075207;28;20193;-86
2023/06/05 09:55:49;;;;;;;3.92;2.05;;;25.70;67.40;;;;;;5074357;28;20222;-85
2023/06/05 09:58:20;;;;;;;3.28;2.67;;;25.30;69.00;;;;;;5074679;28;20206;-85
2023/06/05 10:00:47;;;;;;;3.83;2.08;;;25.00;68.60;;;;;;5075093;28;20187;-86
2023/06/05 10:03:17;;;;;;;4.50;2.88;;;24.70;68.90;;;;;;5074404;28;20204;-86
2023/06/05 10:05:46;;;;;;;3.28;2.08;;;24.70;70.70;;;;;;5074009;28;20228;-87
2023/06/05 10:08:14;;;;;;;2.55;2.20;;;24.90;70.40;;;;;;5074052;28;20198;-85
2023/06/05 10:10:43;;;;;;;2.50;2.38;;;25.00;69.80;;;;;;5074160;28;20567;-87
2023/06/05 10:13:11;;;;;;;2.05;1.80;;;25.00;70.10;;;;;;5074540;28;20229;-86
2023/06/05 10:15:40;;;;;;;3.63;2.72;;;25.00;70.00;;;;;;5078102;28;20712;-87
2023/06/05 10:18:07;;;;;;;3.58;2.55;;;24.70;69.90;;;;;;5074829;28;20206;-85
2023/06/05 10:20:37;;;;;;;4.55;1.98;;;24.50;70.10;;;;;;5073446;28;20233;-86
2023/06/05 10:23:06;;;;;;;5.47;3.28;;;24.20;70.80;;;;;;5073926;28;20669;-85
2023/06/05 10:25:36;;;;;;;2.25;1.92;;;24.10;71.40;;;;;;5073252;28;20271;-85
2023/06/05 10:28:31;;;;;;;2.63;2.42;;;24.30;73.00;;;;;;5073719;28;20205;-85
2023/06/05 10:31:26;;;;;;;2.17;1.92;;;24.60;72.70;;;;;;5075591;28;20187;-86
2023/06/05 10:34:29;;;;;;;2.25;2.05;;;24.80;69.80;;;;;;5077187;28;20195;-87
2023/06/05 10:37:27;;;;;;;2.30;2.10;;;25.10;71.00;;;;;;5074804;28;20226;-88
2023/06/05 10:39:56;;;;;;;3.15;2.33;;;25.20;68.80;;;;;;5074358;28;20285;-86
2023/06/05 10:42:26;;;;;;;4.18;2.88;;;25.20;69.40;;;;;;5074058;28;20210;-87
2023/06/05 10:44:53;;;;;;;3.78;2.50;;;25.30;68.10;;;;;;5073756;28;20222;-88
2023/06/05 10:47:53;;;;;;;2.22;2.03;;;25.40;69.10;;;;;;5074803;28;20206;-88
2023/06/05 10:50:28;;;;;;;2.30;2.05;;;25.50;69.20;;;;;;5074460;28;20182;-87
2023/06/05 10:52:57;;;;;;;3.30;2.75;;;25.70;67.30;;;;;;5074492;28;20196;-88
2023/06/05 10:55:25;;;;;;;3.03;2.53;;;25.70;66.60;;;;;;5074111;28;20221;-88
2023/06/05 10:58:13;;;;;;;2.15;1.92;;;25.70;67.70;;;;;;5076271;28;20233;-86
2023/06/05 11:01:20;;;;;;;2.08;1.98;;;25.80;67.00;;;;;;5078921;28;20534;-89
2023/06/05 11:03:57;;;;;;;2.33;2.22;;;25.80;66.20;;;;;;5078719;28;20210;-88
2023/06/05 11:06:24;;;;;;;4.22;3.22;;;25.50;66.10;;;;;;5078981;28;20584;-89
2023/06/05 11:09:12;;;;;;;2.15;1.58;;;25.50;66.40;;;;;;5079524;28;20206;-88
2023/06/05 11:12:01;;;;;;;3.03;2.75;;;25.30;66.60;;;;;;5079027;28;20182;-87
2023/06/05 11:14:47;;;;;;;2.47;2.28;;;25.10;65.70;;;;;;5078961;28;20194;-89
2023/06/05 11:17:28;;;;;;;3.53;2.92;;;24.80;66.80;;;;;;5078407;28;20248;-89
2023/06/05 11:19:56;;;;;;;3.05;2.25;;;24.70;66.80;;;;;;5079372;28;20186;-88
2023/06/05 11:22:23;;;;;;;3.60;1.95;;;24.80;67.50;;;;;;5078544;28;20297;-88
2023/06/05 11:25:24;;;;;;;2.08;1.85;;;24.80;66.40;;;;;;5078453;28;20202;-88
2023/06/05 11:27:52;;;;;;;3.83;2.80;;;24.90;65.90;;;;;;5078496;28;20215;-88
2023/06/05 11:30:20;;;;;;;4.07;2.53;;;25.00;64.50;;;;;;5078051;28;20202;-90
2023/06/05 11:32:48;;;;;;;2.28;2.08;;;25.20;64.60;;;;;;5077693;28;20564;-86
2023/06/05 11:35:17;;;;;;;2.20;1.80;;;25.20;63.50;;;;;;5076613;28;20221;-87
2023/06/05 11:37:44;;;;;;;2.45;2.25;;;25.30;63.50;;;;;;5077181;28;20209;-87
2023/06/05 11:40:11;;;;;;;2.55;2.10;;;25.40;64.00;;;;;;5082840;28;20206;-87
2023/06/05 11:42:39;;;;;;;3.08;2.78;;;25.50;63.10;;;;;;5087289;28;20213;-87
2023/06/05 11:45:11;;;;;;;1.73;1.63;;;25.40;63.00;;;;;;5091447;28;20267;-87
2023/06/05 11:47:38;;;;;;;3.20;2.15;;;25.20;64.10;;;;;;5085096;28;20582;-87
2023/06/05 11:50:09;;;;;;;1.95;1.85;;;25.00;62.10;;;;;;5090750;28;20197;-86
2023/06/05 11:52:37;;;;;;;2.28;2.10;;;24.90;63.20;;;;;;5079705;28;20201;-87
2023/06/05 11:55:15;;;;;;;1.92;1.83;;;24.90;63.50;;;;;;5085011;28;20217;-86
2023/06/05 11:57:43;;;;;;;2.08;1.85;;;25.10;61.10;;;;;;5080026;28;20292;-86
2023/06/05 12:00:11;;;;;;;3.15;2.13;;;25.20;59.60;;;;;;5077407;28;20202;-87
2023/06/05 12:02:38;;;;;;;2.30;1.75;;;25.20;59.70;;;;;;5076096;28;20734;-87
2023/06/05 12:05:07;;;;;;;1.83;1.65;;;25.40;61.60;;;;;;5075750;28;20221;-87
2023/06/05 12:07:36;;;;;;;1.88;1.77;;;25.30;59.30;;;;;;5075756;28;20214;-86
2023/06/05 12:10:06;;;;;;;1.98;1.88;;;25.20;59.50;;;;;;5074752;28;20202;-85
2023/06/05 12:12:33;;;;;;;2.13;2.03;;;25.10;58.50;;;;;;5075623;28;20206;-86
2023/06/05 12:15:14;;;;;;;2.05;1.88;;;24.70;58.30;;;;;;5075312;28;20243;-87
2023/06/05 12:17:41;;;;;;;3.50;1.92;;;24.50;59.80;;;;;;5075786;28;20209;-87
2023/06/05 12:20:09;;;;;;;1.70;1.60;;;24.60;60.30;;;;;;5075393;28;20587;-87
2023/06/05 12:22:36;;;;;;;1.83;1.67;;;24.60;61.10;;;;;;5075600;28;20190;-86
2023/06/05 12:25:18;;;;;;;3.53;2.03;;;24.70;59.50;;;;;;5075581;28;20218;-85
2023/06/05 12:27:45;;;;;;;1.73;1.60;;;24.80;59.20;;;;;;5075360;28;20259;-86
2023/06/05 12:30:13;;;;;;;2.72;2.03;;;24.70;58.80;;;;;;5075294;28;20190;-87
2023/06/05 12:32:43;;;;;;;1.80;1.70;;;24.70;58.90;;;;;;5075647;28;20632;-86
2023/06/05 12:35:22;;;;;;;3.00;2.10;;;24.80;58.70;;;;;;5074203;28;20287;-86
2023/06/05 12:37:50;;;;;;;2.33;1.90;;;24.80;58.30;;;;;;5075426;28;20561;-87
2023/06/05 12:40:20;;;;;;;1.15;1.10;;;24.80;60.30;;;;;;5075356;28;20552;-87
2023/06/05 12:42:48;;;;;;;1.70;1.60;;;24.90;58.80;;;;;;5075491;28;20187;-86
2023/06/05 12:45:16;;;;;;;1.80;1.70;;;24.80;58.70;;;;;;5075137;28;20218;-87
2023/06/05 12:47:43;;;;;;;1.67;1.50;;;24.80;58.70;;;;;;5074737;28;20222;-87
2023/06/05 12:50:12;;;;;;;2.97;2.17;;;24.80;58.90;;;;;;5074745;28;20202;-87
2023/06/05 12:52:40;;;;;;;1.75;1.55;;;24.80;58.30;;;;;;5075223;28;20199;-86
2023/06/05 12:55:08;;;;;;;2.72;2.53;;;24.90;58.70;;;;;;5075317;28;20233;-87
2023/06/05 12:57:36;;;;;;;1.65;1.52;;;25.00;58.20;;;;;;5075368;28;20209;-87